Airfield :
LOGIN :

Register | Disclaimer

   EN    FR    IT 

 










Legend :    VFR   Marginal VFR   IFR   Intensive IFR   Very Intensive IFR
Visi :
Ceiling :
>= 8 km
>= 3000ft
5 to 8 km
1000 to 3000 ft
1500m to 5 km
500 to 1000 ft
800 to 1500m
200 to 500 ft
< 800m
< 200 ft
Symbols :   Thunderstorms  Fog  Heavy snow  Heavy precipitations  Wind > 20 kt
SIGMETs :     Misc.  Thunderstorms  Icing  Turbulence  Mountain Waves  Volcanic Ashes






- Airport Elevation : 963 ft
- IATA code : TGM


LRTM - Transilvania Târgu Mureş Int.

CURRENT METAR :
  • 271030Z 04005KT 360V070 9999 SCT010 BKN015 16/13 Q1003

EXPIRED METARs :
  • 271000Z 04005KT 9999 BKN010 BKN015 15/13 Q1003
  • 270930Z 03003KT 9999 FEW006 BKN010 OVC013 15/13 Q1003
  • 270900Z 06003KT 020V090 9999 SCT005 BKN007 OVC011 14/14 Q1003
  • 270830Z 10004KT 8000 FEW003 BKN007 OVC010 14/14 Q1004
  • 270800Z 13005KT 8000 FEW002 BKN005 OVC007 14/13 Q1004

TAF TAF LRTM
Valid from the 27 at 09:00 until the 27 at 18:00 UTC


270800Z 2709/2718 VRB04KT 9999 BKN015
TEMPO 2710/2715 VRB15KT 5000 TSRA BKN010 SCT030CB
BECMG 2715/2717 BKN010 SCT030CB



MET'MAP, your aeronautical weather chart ! - Copyright ORBIFLY December 2007 - Disclaimer

ORBIFLY MET'MAP TEAM :

Programming & Development : Alexandra Zaïnal
Original concept : Baudouin d'Aumeries
Technical & hardware support : Manuel Goepfert
Assistance : Marc-Olivier Méhu




SOURCES & CREDITS :

   NOAA